Miley Memorial field
KBPI : now visible

Airfield :











YOU CAN JOIN US ON...

 
LOGIN :

Register | Disclaimer

   EN    FR    IT 

 









Legend :    VFR   Marginal VFR   IFR   Intensive IFR   Very Intensive IFR
Visi :
Ceiling :
>= 8 km
>= 3000ft
5 to 8 km
1000 to 3000 ft
1500m to 5 km
500 to 1000 ft
800 to 1500m
200 to 500 ft
< 800m
< 200 ft
Symbols :   Thunderstorms  Fog  Heavy snow  Heavy precipitations  Wind > 20 kt






- Airport Elevation : 6990 ft


KBPI - Miley Memorial field

CURRENT METAR :
  • 290253Z AUTO 34007KT 9SM CLR M04/M08 A3004 RMK AO2 SLP191 T10391078 51010

EXPIRED METARs :
  • 290153Z AUTO 35008KT 10SM CLR M02/M07 A3003 RMK AO2 SLP193 T10221072
  • 290053Z AUTO 34011KT 10SM CLR 01/M08 A3002 RMK AO2 SLP184 T00111078

TAF KBPI
Valid from the 29 at 00:00 until the 30 at 00:00 UTC


282327Z 2900/2924 33013G23KT P6SM VCSH BKN040
FM290100 35006KT P6SM BKN050
FM292100 19004KT P6SM VCSH BKN060



MET'MAP, your aeronautical weather chart ! - Copyright ORBIFLY December 2007 - Disclaimer

ORBIFLY MET'MAP TEAM :

Programming & Development : Alexandra Zaïnal
Concept & original design : Baudouin d'Aumeries
Assistance for programming : Marc-Olivier Méhu
Technical & hardware support : Manuel Goepfert

Contact : metmap@orbifly.com




SOURCES & CREDITS :

   NOAA       Earth
Advisory